• Join FlightAware (Why Join?)
  • Login
  • US Flag 
12:26AM EST


 

Airport Tracker/Info


-or-


 

Live Flight TrackerFlight Track Log ✈ CNS3 ✈ 12-May-2013 ✈ KPSM

Flight Track Log - Related Links

Times and Time Zones

All times are in EDT time to prevent confusion due to time zone crossing. See the CNS3 flight status page for this flight to view local times or setup timezone preferences in your user account.

Time Position Orientation Groundspeed Altitude Reporting Facility
EDT Latitude Longitude Course Direction KTS MPH feet Rate Location/Type
05:17PM 41.4283 -72.8664 42° Northeast 237 273 13,000  Level Boston Center
05:18PM 41.4744 -72.8114 42° Northeast 242 278 14,300 1,300 Climbing Boston Center
05:19PM 41.5350 -72.7397 42° Northeast 247 284 15,600 650 Climbing Boston Center
05:20PM 41.5917 -72.6706 42° Northeast 283 326 15,600 -50 Level Boston Center
05:21PM 41.6625 -72.5847 42° Northeast 304 350 15,500  Descending Boston Center
05:22PM 41.8154 -72.4179 42° Northeast  Level Estimated
05:22PM 41.7231 -72.5125 42° Northeast 313 360 15,600  Level Boston Center
05:23PM 41.7961 -72.4261 41° Northeast 318 366 15,600  Level Boston Center
05:24PM 41.8544 -72.3508 44° Northeast 318 366 15,600 -50 Level Boston Center
05:25PM 41.9292 -72.2642 41° Northeast 318 366 15,500 -50 Descending Boston Center
05:26PM 41.9875 -72.1886 44° Northeast 318 366 15,500  Level Boston Center
05:27PM 42.0603 -72.0989 42° Northeast 318 366 15,500 50 Level Boston Center
05:28PM 42.1203 -72.0258 42° Northeast 318 366 15,600 50 Climbing Boston Center
05:29PM 42.1931 -71.9386 42° Northeast 318 366 15,600 -50 Level Boston Center
05:30PM 42.2531 -71.8594 44° Northeast 323 372 15,500 -50 Descending Boston Center
05:31PM 42.3275 -71.7689 42° Northeast 317 365 15,500 50 Level Boston Center
05:32PM 42.3939 -71.6894 41° Northeast 317 365 15,600 50 Climbing Boston Center
05:33PM 42.4494 -71.6183 43° Northeast 317 365 15,600 -500 Level Boston Center
05:34PM 42.5239 -71.5275 42° Northeast 317 365 14,600 -1,259 Descending Boston Center
05:34PM 42.5500 -71.5000 38° Northeast 338 389 13,900 -1,731 Descending KA90
05:36PM 42.6167 -71.3500 59° Northeast 305 351 11,600 -1,174 Descending KA90
05:37PM 42.6333 -71.2667 75° East 293 337 11,200 -1,184 Descending KA90
05:37PM 42.6567 -71.2486 30° Northeast 290 334 10,100 -3,556 Descending Boston Center
05:38PM 42.7014 -71.1489 59° Northeast 278 320 6,400 -2,750 Descending Boston Center
05:39PM 42.7444 -71.0744 52° Northeast 251 289 4,600 -1,350 Descending Boston Center
05:40PM 42.7853 -71.0058 51° Northeast 240 276 3,700 -500 Descending Boston Center
05:41PM 42.8283 -70.9425 47° Northeast 224 258 3,600 -45 Descending Boston Center
05:42PM 42.8861 -70.9042 26° Northeast 212 244 3,600  Level Boston Center
05:43PM 42.9167 -70.8833 27° Northeast 212 244 3,600 -741 Level KA90
05:44PM 42.9500 -70.8500 36° Northeast 191 220 2,600 -912 Descending KA90
05:45PM 43.0000 -70.8000 36° Northeast 167 192 1,700 -816 Descending KA90
05:46PM 43.0333 -70.7833 20° North 131 151 900 -584 Descending KA90
05:47PM 43.0722 -70.8114 332° Northwest 93 107 200 5,688 Descending Boston Center
05:48PM 43.0997 -70.8250 340° North 93 107 15,500 7,650 Climbing Boston Center
05:49PM 43.1247 -70.8386 338° Northwest 93 107 15,500  Level Boston Center